Time;durP1;ratioP1;P1;durP2;ratioP2;P2;SDS_P1;SDS_P2;PMS_P1;PMS_P2;Temp;Humidity;BMP_temperature;BMP_pressure;BME280_temperature;BME280_humidity;BME280_pressure;Samples;Min_cycle;Max_cycle;Signal;HPM_P1;HPM_P2
2023/11/20 00:02:20;;;;;;;55.88;43.63;;;;;;;;;;5008260;28;25044;-73
2023/11/20 00:04:46;;;;;;;56.97;46.88;;;;;;;;;;5011433;28;25090;-75
2023/11/20 00:07:12;;;;;;;58.42;48.42;;;;;;;;;;5011469;28;25062;-76
2023/11/20 00:09:38;;;;;;;55.67;47.42;;;;;;;;;;5009456;28;25089;-76
2023/11/20 00:12:05;;;;;;;61.97;50.45;;;;;;;;;;5009411;28;25054;-77
2023/11/20 00:14:31;;;;;;;58.05;49.08;;;;;;;;;;5006954;28;25072;-74
2023/11/20 00:16:57;;;;;;;59.30;48.03;;;;;;;;;;5001975;28;25058;-74
2023/11/20 00:19:23;;;;;;;62.15;49.08;;;;;;;;;;4999350;28;25079;-73
2023/11/20 00:21:49;;;;;;;62.25;52.35;;;;;;;;;;4994384;28;25060;-74
2023/11/20 00:24:15;;;;;;;59.97;49.88;;;;;;;;;;4991923;28;25098;-73
2023/11/20 00:26:42;;;;;;;59.47;49.72;;;;;;;;;;4991866;28;25070;-74
2023/11/20 00:29:08;;;;;;;54.45;48.25;;;;;;;;;;4993259;28;25053;-72
2023/11/20 00:31:37;;;;;;;61.75;49.65;;;;;;;;;;4995370;28;25110;-75
2023/11/20 00:34:06;;;;;;;54.92;48.03;;;;;;;;;;4988930;28;25070;-75
2023/11/20 00:36:32;;;;;;;53.05;47.55;;;;;;;;;;4992907;28;25049;-73
2023/11/20 00:38:58;;;;;;;58.17;44.33;;;;;;;;;;4994960;28;25068;-72
2023/11/20 00:41:25;;;;;;;53.88;45.80;;;;;;;;;;4991204;28;25076;-73
2023/11/20 00:43:51;;;;;;;51.33;45.55;;;;;;;;;;4994002;28;25099;-75
2023/11/20 00:46:17;;;;;;;59.95;45.58;;;;;;;;;;4992722;28;25077;-75
2023/11/20 00:48:44;;;;;;;50.70;45.60;;;;;;;;;;4990330;28;25147;-73
2023/11/20 00:51:11;;;;;;;46.95;41.97;;;;;;;;;;4992374;28;25084;-74
2023/11/20 00:53:37;;;;;;;45.90;41.28;;;;;;;;;;4991467;28;25095;-75
2023/11/20 00:56:03;;;;;;;48.55;43.53;;;;;;;;;;4995116;28;25112;-74
2023/11/20 00:58:29;;;;;;;50.50;45.28;;;;;;;;;;4991527;28;25060;-74
2023/11/20 01:00:58;;;;;;;47.05;42.25;;;;;;;;;;5007385;28;25069;-73
2023/11/20 01:03:23;;;;;;;46.75;41.70;;;;;;;;;;4988762;28;25070;-75
2023/11/20 01:05:49;;;;;;;44.28;39.75;;;;;;;;;;4990902;28;25066;-75
2023/11/20 01:08:15;;;;;;;42.92;38.67;;;;;;;;;;4990628;28;25158;-73
2023/11/20 01:10:41;;;;;;;55.30;40.63;;;;;;;;;;4986063;28;25052;-76
2023/11/20 01:13:07;;;;;;;47.08;42.63;;;;;;;;;;4991486;28;25073;-71
2023/11/20 01:15:33;;;;;;;48.88;40.28;;;;;;;;;;4991700;28;25097;-75
2023/11/20 01:17:59;;;;;;;45.92;39.92;;;;;;;;;;4986822;28;25065;-77
2023/11/20 01:20:26;;;;;;;53.30;39.85;;;;;;;;;;4992651;28;25080;-73
2023/11/20 01:22:52;;;;;;;41.58;37.60;;;;;;;;;;4995949;28;25066;-74
2023/11/20 01:25:18;;;;;;;42.17;37.35;;;;;;;;;;4990225;28;25083;-71
2023/11/20 01:27:44;;;;;;;43.13;38.85;;;;;;;;;;4992563;28;25067;-72
2023/11/20 01:30:10;;;;;;;38.80;34.97;;;;;;;;;;4994123;28;25063;-72
2023/11/20 01:32:36;;;;;;;39.97;34.50;;;;;;;;;;4989742;28;25081;-73
2023/11/20 01:35:04;;;;;;;39.05;35.20;;;;;;;;;;4994064;28;25094;-73
2023/11/20 01:37:29;;;;;;;41.85;36.22;;;;;;;;;;4994016;28;25059;-72
2023/11/20 01:39:56;;;;;;;43.13;35.22;;;;;;;;;;4987841;28;25143;-73
2023/11/20 01:42:22;;;;;;;41.05;34.03;;;;;;;;;;4993351;28;25115;-74
2023/11/20 01:44:48;;;;;;;41.47;36.70;;;;;;;;;;4989330;28;25082;-73
2023/11/20 01:47:14;;;;;;;45.88;36.13;;;;;;;;;;4991872;28;25119;-73
2023/11/20 01:49:42;;;;;;;38.70;34.03;;;;;;;;;;4985703;28;25076;-74
2023/11/20 01:52:09;;;;;;;45.15;36.63;;;;;;;;;;4993191;28;25120;-74
2023/11/20 01:54:36;;;;;;;42.38;38.20;;;;;;;;;;4990385;28;25065;-73
2023/11/20 01:57:02;;;;;;;43.38;38.95;;;;;;;;;;4992113;28;25075;-73
2023/11/20 01:59:30;;;;;;;44.50;40.13;;;;;;;;;;4991019;28;25060;-74
2023/11/20 02:01:56;;;;;;;44.22;39.47;;;;;;;;;;4992030;28;25060;-73
2023/11/20 02:04:23;;;;;;;47.35;42.42;;;;;;;;;;4990058;28;25088;-74
2023/11/20 02:06:50;;;;;;;45.40;40.55;;;;;;;;;;4990167;28;25134;-73
2023/11/20 02:09:19;;;;;;;44.17;39.65;;;;;;;;;;4990499;28;25141;-74
2023/11/20 02:11:45;;;;;;;50.75;41.65;;;;;;;;;;4987719;28;25065;-74
2023/11/20 02:14:13;;;;;;;41.60;37.15;;;;;;;;;;4993151;28;25070;-73
2023/11/20 02:16:39;;;;;;;50.78;36.95;;;;;;;;;;4986192;28;25074;-75
2023/11/20 02:19:12;;;;;;;43.05;38.17;;;;;;;;;;4992221;28;25173;-75
2023/11/20 02:21:37;;;;;;;44.55;36.83;;;;;;;;;;4990491;28;25102;-73
2023/11/20 02:24:04;;;;;;;43.53;38.97;;;;;;;;;;4993130;28;25159;-73
2023/11/20 02:26:48;;;;;;;42.72;36.53;;;;;;;;;;4993938;28;25083;-73
2023/11/20 02:29:14;;;;;;;45.33;39.35;;;;;;;;;;4990230;28;25063;-74
2023/11/20 02:31:42;;;;;;;40.58;36.20;;;;;;;;;;4990108;28;25068;-72
2023/11/20 02:34:08;;;;;;;40.95;34.08;;;;;;;;;;4994179;28;25127;-73
2023/11/20 02:36:35;;;;;;;45.10;35.17;;;;;;;;;;4981364;28;25070;-72
2023/11/20 02:39:01;;;;;;;43.83;33.13;;;;;;;;;;4991199;28;25072;-77
2023/11/20 02:41:27;;;;;;;41.67;35.55;;;;;;;;;;4993882;28;25080;-72
2023/11/20 02:43:53;;;;;;;43.30;37.72;;;;;;;;;;4989053;28;25064;-73
2023/11/20 02:46:19;;;;;;;41.92;37.67;;;;;;;;;;4985841;28;25072;-75
2023/11/20 02:48:45;;;;;;;43.42;39.17;;;;;;;;;;4979195;28;25045;-73
2023/11/20 02:51:11;;;;;;;42.03;37.40;;;;;;;;;;4979180;28;25095;-74
2023/11/20 02:53:37;;;;;;;44.78;36.22;;;;;;;;;;4983634;28;25066;-76
2023/11/20 02:56:03;;;;;;;47.85;42.78;;;;;;;;;;4986059;28;25104;-73
2023/11/20 02:58:29;;;;;;;46.33;41.30;;;;;;;;;;4978977;28;25149;-71
2023/11/20 03:00:55;;;;;;;46.60;41.88;;;;;;;;;;4982902;28;25074;-72
2023/11/20 03:03:21;;;;;;;46.47;41.25;;;;;;;;;;4990032;28;25067;-73
2023/11/20 03:05:47;;;;;;;47.53;42.92;;;;;;;;;;4986465;28;25065;-71
2023/11/20 03:08:13;;;;;;;46.47;41.53;;;;;;;;;;4984628;28;25098;-74
2023/11/20 03:10:39;;;;;;;44.08;39.38;;;;;;;;;;4990211;28;25122;-74
2023/11/20 03:13:05;;;;;;;44.90;38.17;;;;;;;;;;4984969;28;25065;-74
2023/11/20 03:15:31;;;;;;;43.92;39.33;;;;;;;;;;4992401;28;25051;-75
2023/11/20 03:17:57;;;;;;;51.03;40.53;;;;;;;;;;4994130;28;25143;-75
2023/11/20 03:20:23;;;;;;;45.65;40.67;;;;;;;;;;4986634;28;25099;-75
2023/11/20 03:22:50;;;;;;;56.55;38.33;;;;;;;;;;4983756;28;25058;-75
2023/11/20 03:25:16;;;;;;;40.78;36.78;;;;;;;;;;4988650;28;25133;-74
2023/11/20 03:27:42;;;;;;;48.63;37.92;;;;;;;;;;4989478;28;25139;-74
2023/11/20 03:30:09;;;;;;;44.45;37.85;;;;;;;;;;4986114;28;25077;-74
2023/11/20 03:32:38;;;;;;;45.97;39.70;;;;;;;;;;4992986;28;25157;-74
2023/11/20 03:35:05;;;;;;;40.78;36.88;;;;;;;;;;4981043;28;25181;-76
2023/11/20 03:37:31;;;;;;;41.38;36.40;;;;;;;;;;4997493;28;25063;-73
2023/11/20 03:39:57;;;;;;;46.25;40.28;;;;;;;;;;5001902;28;25052;-73
2023/11/20 03:42:23;;;;;;;44.03;37.55;;;;;;;;;;4997940;28;25086;-73
2023/11/20 03:44:49;;;;;;;42.70;38.47;;;;;;;;;;4995159;28;25078;-74
2023/11/20 03:47:15;;;;;;;44.65;34.72;;;;;;;;;;4988790;28;25060;-73
2023/11/20 03:49:41;;;;;;;50.88;35.85;;;;;;;;;;4989053;28;25126;-73
2023/11/20 03:52:07;;;;;;;39.63;35.20;;;;;;;;;;4990141;28;25053;-73
2023/11/20 03:54:33;;;;;;;42.38;38.05;;;;;;;;;;4990892;28;25056;-76
2023/11/20 03:56:59;;;;;;;40.20;35.15;;;;;;;;;;4986449;28;25058;-73
2023/11/20 03:59:25;;;;;;;41.90;34.03;;;;;;;;;;4989317;28;25066;-74
2023/11/20 04:01:51;;;;;;;42.83;37.95;;;;;;;;;;4993443;28;25057;-74
2023/11/20 04:04:17;;;;;;;41.05;35.00;;;;;;;;;;4986648;28;25089;-74
2023/11/20 04:06:43;;;;;;;44.58;35.53;;;;;;;;;;4984678;28;25117;-76
2023/11/20 04:09:09;;;;;;;37.67;32.80;;;;;;;;;;4988685;28;25077;-76
2023/11/20 04:11:35;;;;;;;39.20;30.88;;;;;;;;;;4986116;28;25077;-74
2023/11/20 04:14:01;;;;;;;41.03;36.30;;;;;;;;;;4984232;28;25116;-73
2023/11/20 04:16:27;;;;;;;40.15;29.10;;;;;;;;;;4987510;28;25105;-77
2023/11/20 04:18:53;;;;;;;35.75;31.90;;;;;;;;;;4986485;28;25056;-71
2023/11/20 04:21:20;;;;;;;40.20;34.15;;;;;;;;;;4986530;28;25063;-76
2023/11/20 04:23:46;;;;;;;47.97;35.95;;;;;;;;;;4988875;28;25058;-75
2023/11/20 04:26:12;;;;;;;42.42;35.92;;;;;;;;;;4982891;28;25101;-73
2023/11/20 04:28:37;;;;;;;51.58;38.70;;;;;;;;;;4983771;28;25110;-73
2023/11/20 04:31:04;;;;;;;40.78;36.60;;;;;;;;;;4984350;28;25058;-74
2023/11/20 04:33:30;;;;;;;39.83;35.15;;;;;;;;;;4986028;28;25082;-74
2023/11/20 04:35:56;;;;;;;49.55;35.08;;;;;;;;;;4986972;28;25145;-73
2023/11/20 04:38:28;;;;;;;37.08;33.17;;;;;;;;;;4988227;28;25059;-73
2023/11/20 04:40:54;;;;;;;38.67;33.35;;;;;;;;;;4985374;28;25134;-72
2023/11/20 04:43:20;;;;;;;39.28;33.05;;;;;;;;;;4986626;28;25067;-74
2023/11/20 04:45:46;;;;;;;37.92;33.60;;;;;;;;;;4985894;28;25086;-74
2023/11/20 04:48:12;;;;;;;37.50;33.58;;;;;;;;;;4987508;28;25098;-73
2023/11/20 04:50:38;;;;;;;48.78;35.63;;;;;;;;;;4987301;28;25087;-71
2023/11/20 04:53:04;;;;;;;41.78;34.72;;;;;;;;;;4985527;28;25102;-74
2023/11/20 04:55:30;;;;;;;38.95;32.00;;;;;;;;;;4981466;28;25043;-73
2023/11/20 04:57:57;;;;;;;34.88;29.90;;;;;;;;;;4984852;28;25172;-73
2023/11/20 05:00:23;;;;;;;43.38;32.78;;;;;;;;;;4984863;28;25063;-71
2023/11/20 05:02:49;;;;;;;42.90;31.42;;;;;;;;;;4986056;28;25056;-73
2023/11/20 05:05:15;;;;;;;40.58;31.70;;;;;;;;;;4985523;28;25057;-73
2023/11/20 05:07:41;;;;;;;36.28;29.67;;;;;;;;;;4982749;28;25077;-74
2023/11/20 05:10:07;;;;;;;45.92;30.75;;;;;;;;;;4983383;28;25140;-73
2023/11/20 05:12:33;;;;;;;38.17;30.63;;;;;;;;;;4983245;28;25117;-74
2023/11/20 05:14:59;;;;;;;46.28;28.13;;;;;;;;;;4978674;28;25095;-72
2023/11/20 05:17:25;;;;;;;35.85;30.35;;;;;;;;;;4979181;28;25055;-73
2023/11/20 05:19:51;;;;;;;34.22;27.92;;;;;;;;;;4984251;28;25055;-72
2023/11/20 05:22:17;;;;;;;38.63;29.65;;;;;;;;;;4986407;28;25098;-73
2023/11/20 05:24:43;;;;;;;37.20;33.28;;;;;;;;;;4986007;28;25148;-74
2023/11/20 05:27:10;;;;;;;45.45;35.67;;;;;;;;;;4985658;28;25102;-74
2023/11/20 05:29:39;;;;;;;38.22;30.30;;;;;;;;;;4981318;28;25055;-71
2023/11/20 05:32:06;;;;;;;51.00;34.55;;;;;;;;;;4984674;28;25074;-76
2023/11/20 05:34:33;;;;;;;45.88;37.80;;;;;;;;;;4984901;28;25056;-77
2023/11/20 05:36:59;;;;;;;49.35;39.47;;;;;;;;;;4984276;28;25064;-74
2023/11/20 05:39:25;;;;;;;50.42;41.88;;;;;;;;;;4987396;28;25068;-75
2023/11/20 05:41:52;;;;;;;57.25;41.75;;;;;;;;;;4985282;28;25060;-73
2023/11/20 05:44:18;;;;;;;48.97;37.88;;;;;;;;;;4983564;28;25163;-74
2023/11/20 05:46:44;;;;;;;46.63;41.85;;;;;;;;;;4978551;28;25097;-73
2023/11/20 05:49:10;;;;;;;60.55;39.78;;;;;;;;;;4985511;28;25096;-73
2023/11/20 05:51:37;;;;;;;51.28;41.45;;;;;;;;;;4985120;28;25075;-73
2023/11/20 05:54:03;;;;;;;54.42;41.38;;;;;;;;;;4978809;28;25128;-72
2023/11/20 05:56:30;;;;;;;49.70;42.50;;;;;;;;;;4985187;28;25064;-73
2023/11/20 05:58:57;;;;;;;50.55;45.20;;;;;;;;;;4984084;28;25098;-73
2023/11/20 06:01:23;;;;;;;47.38;39.58;;;;;;;;;;4985279;28;25073;-71
2023/11/20 06:03:49;;;;;;;55.65;43.38;;;;;;;;;;4984097;28;25066;-73
2023/11/20 06:06:21;;;;;;;52.60;40.25;;;;;;;;;;4983699;28;25149;-72
2023/11/20 06:08:48;;;;;;;61.25;41.00;;;;;;;;;;4990235;28;25050;-74
2023/11/20 06:11:23;;;;;;;53.88;38.97;;;;;;;;;;4988518;28;25141;-72
2023/11/20 06:13:51;;;;;;;46.78;36.75;;;;;;;;;;4985572;28;25139;-73
2023/11/20 06:16:17;;;;;;;54.25;39.60;;;;;;;;;;4982825;28;25089;-73
2023/11/20 06:18:43;;;;;;;52.00;35.83;;;;;;;;;;4987495;28;25085;-73
2023/11/20 06:21:09;;;;;;;47.65;38.92;;;;;;;;;;4989261;28;25101;-73
2023/11/20 06:23:35;;;;;;;71.93;43.22;;;;;;;;;;4987621;28;25166;-74
2023/11/20 06:26:02;;;;;;;53.58;38.83;;;;;;;;;;4986170;28;25060;-75
2023/11/20 06:28:28;;;;;;;54.20;39.75;;;;;;;;;;4983452;28;25130;-73
2023/11/20 06:30:54;;;;;;;50.50;37.38;;;;;;;;;;4985125;28;25153;-74
2023/11/20 06:33:21;;;;;;;49.45;40.30;;;;;;;;;;4980618;28;25108;-74
2023/11/20 06:35:47;;;;;;;51.95;34.35;;;;;;;;;;4986997;28;25090;-73
2023/11/20 06:38:13;;;;;;;59.25;34.72;;;;;;;;;;4987025;28;25126;-77
2023/11/20 06:40:40;;;;;;;55.10;39.63;;;;;;;;;;4988869;28;25075;-74
2023/11/20 06:43:06;;;;;;;55.58;35.05;;;;;;;;;;4987838;28;25089;-74
2023/11/20 06:45:32;;;;;;;55.08;35.42;;;;;;;;;;4994368;28;25082;-74
2023/11/20 06:47:58;;;;;;;51.10;38.40;;;;;;;;;;4992600;28;25155;-76
2023/11/20 06:50:25;;;;;;;55.30;39.75;;;;;;;;;;4984528;28;25136;-75
2023/11/20 06:52:54;;;;;;;56.50;39.05;;;;;;;;;;4986974;28;25064;-73
2023/11/20 06:55:20;;;;;;;62.03;43.67;;;;;;;;;;4988466;28;25145;-72
2023/11/20 06:57:46;;;;;;;57.22;40.85;;;;;;;;;;4990028;28;25071;-76
2023/11/20 07:00:12;;;;;;;53.30;39.65;;;;;;;;;;4998353;28;25070;-72
2023/11/20 07:02:39;;;;;;;54.75;39.55;;;;;;;;;;4989862;28;25070;-72
2023/11/20 07:05:07;;;;;;;53.28;39.60;;;;;;;;;;4994014;28;25165;-73
2023/11/20 07:07:40;;;;;;;50.78;36.65;;;;;;;;;;4990625;28;24796;-72
2023/11/20 07:10:11;;;;;;;56.33;41.63;;;;;;;;;;4993184;28;25066;-72
2023/11/20 07:12:37;;;;;;;61.67;41.35;;;;;;;;;;4987485;28;25096;-71
2023/11/20 07:15:03;;;;;;;51.53;38.25;;;;;;;;;;4992027;28;25084;-73
2023/11/20 07:17:29;;;;;;;68.18;40.38;;;;;;;;;;4993950;28;25043;-72
2023/11/20 07:19:55;;;;;;;54.70;39.55;;;;;;;;;;4994400;28;25100;-73
2023/11/20 07:22:22;;;;;;;45.55;38.70;;;;;;;;;;4998019;28;25078;-74
2023/11/20 07:24:48;;;;;;;53.78;43.20;;;;;;;;;;4993533;28;25068;-73
2023/11/20 07:27:14;;;;;;;52.97;40.88;;;;;;;;;;4993266;28;25089;-75
2023/11/20 07:29:41;;;;;;;50.60;40.35;;;;;;;;;;4993126;28;25073;-73
2023/11/20 07:32:07;;;;;;;50.08;41.40;;;;;;;;;;4990750;28;25070;-74
2023/11/20 07:34:33;;;;;;;55.08;41.03;;;;;;;;;;4988744;28;25082;-76
2023/11/20 07:36:59;;;;;;;50.10;39.83;;;;;;;;;;4990708;28;25107;-74
2023/11/20 07:39:25;;;;;;;62.10;41.50;;;;;;;;;;4988706;28;25065;-74
2023/11/20 07:41:51;;;;;;;52.65;41.50;;;;;;;;;;4984736;28;25075;-73
2023/11/20 07:44:17;;;;;;;53.85;43.75;;;;;;;;;;4990955;28;25110;-73
2023/11/20 07:46:43;;;;;;;60.00;44.90;;;;;;;;;;4988013;28;25139;-73
2023/11/20 07:49:10;;;;;;;64.65;44.40;;;;;;;;;;4987261;28;25136;-78
2023/11/20 07:51:36;;;;;;;59.50;44.72;;;;;;;;;;4992151;28;25008;-73
2023/11/20 07:54:02;;;;;;;59.85;43.20;;;;;;;;;;4987779;28;25146;-73
2023/11/20 07:56:28;;;;;;;58.55;40.72;;;;;;;;;;4988626;28;25081;-73
2023/11/20 07:58:54;;;;;;;54.97;43.20;;;;;;;;;;4990255;28;25087;-72
2023/11/20 08:01:20;;;;;;;50.90;42.58;;;;;;;;;;4988030;28;25086;-73
2023/11/20 08:03:46;;;;;;;58.17;42.88;;;;;;;;;;4986241;28;25075;-77
2023/11/20 08:06:13;;;;;;;49.75;41.17;;;;;;;;;;4986364;28;25076;-74
2023/11/20 08:08:39;;;;;;;60.75;41.22;;;;;;;;;;4986537;28;25066;-74
2023/11/20 08:11:06;;;;;;;53.92;38.72;;;;;;;;;;4981902;28;25140;-74
2023/11/20 08:13:32;;;;;;;56.50;36.47;;;;;;;;;;4988932;28;25068;-72
2023/11/20 08:15:58;;;;;;;61.60;39.13;;;;;;;;;;4985722;28;25069;-76
2023/11/20 08:18:24;;;;;;;49.10;36.72;;;;;;;;;;4989026;28;25094;-76
2023/11/20 08:20:51;;;;;;;54.83;39.00;;;;;;;;;;4989785;28;25036;-74
2023/11/20 08:23:17;;;;;;;55.78;39.72;;;;;;;;;;4987791;28;25160;-73
2023/11/20 08:25:43;;;;;;;49.80;40.25;;;;;;;;;;4984447;28;25054;-75
2023/11/20 08:28:09;;;;;;;51.35;41.10;;;;;;;;;;4987697;28;25084;-73
2023/11/20 08:30:35;;;;;;;53.20;40.97;;;;;;;;;;4979821;28;25065;-75
2023/11/20 08:33:01;;;;;;;55.28;42.00;;;;;;;;;;4982976;28;25071;-72
2023/11/20 08:35:27;;;;;;;55.55;41.42;;;;;;;;;;4986754;28;25064;-76
2023/11/20 08:37:53;;;;;;;48.63;38.55;;;;;;;;;;4982775;28;25075;-71
2023/11/20 08:40:20;;;;;;;62.10;40.22;;;;;;;;;;4987705;28;25073;-73
2023/11/20 08:42:46;;;;;;;46.35;37.13;;;;;;;;;;4986959;28;25136;-72
2023/11/20 08:45:12;;;;;;;44.15;36.72;;;;;;;;;;4982667;28;25102;-74
2023/11/20 08:47:39;;;;;;;50.45;34.25;;;;;;;;;;4974467;28;25068;-73
2023/11/20 08:50:06;;;;;;;55.10;38.35;;;;;;;;;;4985938;28;25054;-73
2023/11/20 08:52:33;;;;;;;49.50;39.45;;;;;;;;;;4987382;28;25060;-77
2023/11/20 08:54:58;;;;;;;56.97;37.53;;;;;;;;;;4985508;28;25117;-73
2023/11/20 08:57:24;;;;;;;55.20;40.78;;;;;;;;;;4987149;28;25123;-74
2023/11/20 08:59:51;;;;;;;48.15;39.72;;;;;;;;;;4989065;28;25057;-74
2023/11/20 09:02:17;;;;;;;54.25;38.83;;;;;;;;;;4980167;28;25067;-73
2023/11/20 09:04:43;;;;;;;45.75;41.05;;;;;;;;;;4990459;28;25085;-74
2023/11/20 09:07:09;;;;;;;47.85;39.63;;;;;;;;;;4987480;28;25083;-72
2023/11/20 09:09:35;;;;;;;48.40;40.67;;;;;;;;;;4985734;28;25055;-73
2023/11/20 09:12:04;;;;;;;54.13;41.72;;;;;;;;;;4984285;28;25054;-72
2023/11/20 09:14:30;;;;;;;53.35;42.40;;;;;;;;;;4982070;28;25051;-73
2023/11/20 09:16:57;;;;;;;56.35;45.17;;;;;;;;;;4985719;28;25132;-72
2023/11/20 09:19:23;;;;;;;52.47;43.00;;;;;;;;;;4988694;28;25075;-72
2023/11/20 09:21:49;;;;;;;54.15;41.50;;;;;;;;;;4989899;28;25050;-72
2023/11/20 09:24:15;;;;;;;57.05;43.30;;;;;;;;;;4988097;28;25080;-72
2023/11/20 09:26:42;;;;;;;55.70;43.83;;;;;;;;;;4988819;28;25115;-74
2023/11/20 09:29:08;;;;;;;48.63;42.55;;;;;;;;;;4987790;28;25123;-75
2023/11/20 09:31:37;;;;;;;52.67;47.05;;;;;;;;;;4974261;28;25048;-73
2023/11/20 09:34:03;;;;;;;52.92;46.00;;;;;;;;;;4987706;28;25069;-72
2023/11/20 09:36:31;;;;;;;48.88;43.75;;;;;;;;;;4989125;28;25077;-73
2023/11/20 09:38:57;;;;;;;57.28;43.40;;;;;;;;;;4990179;28;25085;-73
2023/11/20 09:41:23;;;;;;;65.30;43.08;;;;;;;;;;4985122;28;25087;-73
2023/11/20 09:43:49;;;;;;;44.90;39.85;;;;;;;;;;4983758;28;25092;-75
2023/11/20 09:46:15;;;;;;;49.63;40.72;;;;;;;;;;4987318;28;25049;-74
2023/11/20 09:48:43;;;;;;;50.13;42.30;;;;;;;;;;4988736;28;25055;-73
2023/11/20 09:51:10;;;;;;;44.90;40.30;;;;;;;;;;4987962;28;25122;-74
2023/11/20 09:53:37;;;;;;;50.85;40.00;;;;;;;;;;4987359;28;25059;-74
2023/11/20 09:56:03;;;;;;;49.60;41.17;;;;;;;;;;4987623;28;25101;-74
2023/11/20 09:58:32;;;;;;;49.00;44.03;;;;;;;;;;4982583;28;25057;-74
2023/11/20 10:01:04;;;;;;;49.67;42.53;;;;;;;;;;4987972;28;25074;-76
2023/11/20 10:03:31;;;;;;;41.58;37.50;;;;;;;;;;4985973;28;25129;-72
2023/11/20 10:05:59;;;;;;;40.65;36.30;;;;;;;;;;4990115;28;25153;-72
2023/11/20 10:08:26;;;;;;;41.70;35.17;;;;;;;;;;4986096;28;25110;-73
2023/11/20 10:10:52;;;;;;;41.90;34.67;;;;;;;;;;4986029;28;25067;-73
2023/11/20 10:13:19;;;;;;;46.33;35.47;;;;;;;;;;4978424;28;25113;-74
2023/11/20 10:15:46;;;;;;;39.38;34.97;;;;;;;;;;4983349;28;25132;-74
2023/11/20 10:18:13;;;;;;;46.45;35.28;;;;;;;;;;4983683;28;25100;-72
2023/11/20 10:20:48;;;;;;;38.13;34.03;;;;;;;;;;4984768;28;24893;-73
2023/11/20 10:23:15;;;;;;;37.58;29.25;;;;;;;;;;4983891;28;25068;-74
2023/11/20 10:25:45;;;;;;;35.40;28.80;;;;;;;;;;4983440;28;25122;-72
2023/11/20 10:28:13;;;;;;;38.25;26.10;;;;;;;;;;4986672;28;25128;-73
2023/11/20 10:30:40;;;;;;;39.25;25.23;;;;;;;;;;4982708;28;25156;-73
2023/11/20 10:33:15;;;;;;;43.80;24.40;;;;;;;;;;4990291;28;25054;-71
2023/11/20 10:35:40;;;;;;;38.08;20.27;;;;;;;;;;4978736;28;25103;-73
2023/11/20 10:38:07;;;;;;;34.03;17.67;;;;;;;;;;4987669;28;25106;-73
2023/11/20 10:40:35;;;;;;;31.13;15.52;;;;;;;;;;4988673;28;25067;-72
2023/11/20 10:43:01;;;;;;;27.88;14.05;;;;;;;;;;4989776;28;25128;-72
2023/11/20 10:45:27;;;;;;;26.92;13.30;;;;;;;;;;4991861;28;25158;-71
2023/11/20 10:47:53;;;;;;;29.13;14.15;;;;;;;;;;4987682;28;25096;-72
2023/11/20 10:50:21;;;;;;;30.60;14.05;;;;;;;;;;4989506;28;25131;-72
2023/11/20 10:52:47;;;;;;;26.92;15.85;;;;;;;;;;5015555;28;25061;-73
2023/11/20 10:55:17;;;;;;;26.77;16.33;;;;;;;;;;5005155;28;25051;-74
2023/11/20 10:57:44;;;;;;;32.95;14.40;;;;;;;;;;5002121;28;25069;-73
2023/11/20 11:00:11;;;;;;;25.10;12.90;;;;;;;;;;5008583;28;25074;-73
2023/11/20 11:02:44;;;;;;;28.17;12.98;;;;;;;;;;5009213;28;25086;-76
2023/11/20 11:05:12;;;;;;;24.75;11.32;;;;;;;;;;5008769;28;25067;-75
2023/11/20 11:07:43;;;;;;;25.60;12.93;;;;;;;;;;5003088;28;25061;-76
2023/11/20 11:10:14;;;;;;;26.27;13.73;;;;;;;;;;5001620;28;25078;-76
2023/11/20 11:12:43;;;;;;;35.72;13.98;;;;;;;;;;5000822;28;25144;-79
2023/11/20 11:15:15;;;;;;;16.60;10.35;;;;;;;;;;4997865;28;25067;-73
2023/11/20 11:17:47;;;;;;;20.30;9.23;;;;;;;;;;4993906;28;25102;-73
2023/11/20 11:20:14;;;;;;;29.52;8.85;;;;;;;;;;4982520;28;25057;-73
2023/11/20 11:22:43;;;;;;;23.10;7.30;;;;;;;;;;4989329;28;25098;-72
2023/11/20 11:25:11;;;;;;;28.15;7.10;;;;;;;;;;4995327;28;25051;-74
2023/11/20 11:27:42;;;;;;;19.83;6.35;;;;;;;;;;4999748;28;25062;-72
2023/11/20 11:30:10;;;;;;;19.40;5.33;;;;;;;;;;5000066;28;25095;-72
2023/11/20 11:32:56;;;;;;;28.50;5.80;;;;;;;;;;4998232;28;25051;-73
2023/11/20 11:35:40;;;;;;;26.90;6.13;;;;;;;;;;4997301;28;25158;-73
2023/11/20 11:38:18;;;;;;;33.05;7.07;;;;;;;;;;4987440;28;25090;-72
2023/11/20 11:40:54;;;;;;;17.17;5.10;;;;;;;;;;5000144;28;25075;-74
2023/11/20 11:43:24;;;;;;;21.95;5.78;;;;;;;;;;4994452;28;25071;-74
2023/11/20 11:45:52;;;;;;;22.77;5.85;;;;;;;;;;4998971;28;25107;-73
2023/11/20 11:48:18;;;;;;;19.70;5.10;;;;;;;;;;5002000;28;25068;-73
2023/11/20 11:50:47;;;;;;;22.45;4.68;;;;;;;;;;4996653;28;25075;-72
2023/11/20 11:53:13;;;;;;;20.67;5.32;;;;;;;;;;4994189;28;25092;-74
2023/11/20 11:55:40;;;;;;;28.70;5.72;;;;;;;;;;4993171;28;25069;-74
2023/11/20 11:58:08;;;;;;;28.52;5.22;;;;;;;;;;4991045;28;25070;-72
2023/11/20 12:00:34;;;;;;;18.10;5.20;;;;;;;;;;4989037;28;25137;-73
2023/11/20 12:03:01;;;;;;;25.90;4.97;;;;;;;;;;4988275;28;25086;-75
2023/11/20 12:05:27;;;;;;;22.27;5.05;;;;;;;;;;4980478;28;25102;-73
2023/11/20 12:07:56;;;;;;;22.90;5.03;;;;;;;;;;4984629;28;25066;-74
2023/11/20 12:10:39;;;;;;;24.40;6.57;;;;;;;;;;4987154;28;25072;-73
2023/11/20 12:13:12;;;;;;;27.77;5.28;;;;;;;;;;4987435;28;25100;-73
2023/11/20 12:15:42;;;;;;;18.42;4.72;;;;;;;;;;4986471;28;25123;-73
2023/11/20 12:18:11;;;;;;;23.13;5.05;;;;;;;;;;4987206;28;25088;-74
2023/11/20 12:20:52;;;;;;;16.45;5.28;;;;;;;;;;4981164;28;25127;-75
2023/11/20 12:23:20;;;;;;;24.75;5.60;;;;;;;;;;4984956;28;25121;-75
2023/11/20 12:25:49;;;;;;;25.08;5.20;;;;;;;;;;4988495;28;25080;-71
2023/11/20 12:28:15;;;;;;;16.77;4.97;;;;;;;;;;4984387;28;25074;-73
2023/11/20 12:30:41;;;;;;;21.98;5.53;;;;;;;;;;4985509;28;25134;-73
2023/11/20 12:33:07;;;;;;;18.67;4.47;;;;;;;;;;4989801;28;25058;-76
2023/11/20 12:35:33;;;;;;;16.77;4.88;;;;;;;;;;4990233;28;25059;-73
2023/11/20 12:38:00;;;;;;;22.10;6.63;;;;;;;;;;4991527;28;25060;-77
2023/11/20 12:40:26;;;;;;;20.85;5.10;;;;;;;;;;4989009;28;25093;-76
2023/11/20 12:42:52;;;;;;;20.00;5.40;;;;;;;;;;4989204;28;25135;-73
2023/11/20 12:45:18;;;;;;;21.33;6.07;;;;;;;;;;4988835;28;25060;-75
2023/11/20 12:47:44;;;;;;;22.05;5.75;;;;;;;;;;4991505;28;25050;-75
2023/11/20 12:50:13;;;;;;;20.95;6.10;;;;;;;;;;4991905;28;25068;-72
2023/11/20 12:52:40;;;;;;;23.25;6.18;;;;;;;;;;4992095;28;25073;-73
2023/11/20 12:55:07;;;;;;;16.15;5.50;;;;;;;;;;4986978;28;25090;-76
2023/11/20 12:57:34;;;;;;;15.70;5.18;;;;;;;;;;4992064;28;25140;-73
2023/11/20 13:00:00;;;;;;;11.93;3.92;;;;;;;;;;4987746;28;25065;-75
2023/11/20 13:02:28;;;;;;;14.02;4.70;;;;;;;;;;4990099;28;25083;-72
2023/11/20 13:04:54;;;;;;;15.77;4.63;;;;;;;;;;4988351;28;25068;-72
2023/11/20 13:07:23;;;;;;;16.38;4.63;;;;;;;;;;4989218;28;25072;-73
2023/11/20 13:09:53;;;;;;;19.80;6.07;;;;;;;;;;4986102;28;25054;-76
2023/11/20 13:12:19;;;;;;;15.05;4.82;;;;;;;;;;4988021;28;25063;-75
2023/11/20 13:15:00;;;;;;;12.68;5.03;;;;;;;;;;4989618;28;25101;-75
2023/11/20 13:17:29;;;;;;;8.57;4.60;;;;;;;;;;5002253;28;25074;-74
2023/11/20 13:19:56;;;;;;;18.05;5.70;;;;;;;;;;4987355;28;25083;-72
2023/11/20 13:22:22;;;;;;;13.07;6.22;;;;;;;;;;4968846;28;25084;-74
2023/11/20 13:24:49;;;;;;;14.52;6.45;;;;;;;;;;4986586;28;25061;-72
2023/11/20 13:27:16;;;;;;;15.90;6.70;;;;;;;;;;4985803;28;25046;-73
2023/11/20 13:29:42;;;;;;;13.63;6.07;;;;;;;;;;4985017;28;25087;-76
2023/11/20 13:32:17;;;;;;;15.48;6.35;;;;;;;;;;4986788;28;25071;-71
2023/11/20 13:34:43;;;;;;;10.88;5.57;;;;;;;;;;4988383;28;25154;-73
2023/11/20 13:37:09;;;;;;;14.98;5.93;;;;;;;;;;4994170;28;25087;-71
2023/11/20 13:39:36;;;;;;;15.60;5.28;;;;;;;;;;4988952;28;25076;-72
2023/11/20 13:42:03;;;;;;;12.15;5.90;;;;;;;;;;4987121;28;25087;-73
2023/11/20 13:44:29;;;;;;;17.48;6.65;;;;;;;;;;4986170;28;25150;-71
2023/11/20 13:46:55;;;;;;;15.05;5.80;;;;;;;;;;4990202;28;25111;-74
2023/11/20 13:49:23;;;;;;;17.90;6.25;;;;;;;;;;4988200;28;25137;-75
2023/11/20 13:51:51;;;;;;;13.20;5.50;;;;;;;;;;4985971;28;25059;-74
2023/11/20 13:54:17;;;;;;;17.10;5.85;;;;;;;;;;4982769;28;25042;-74
2023/11/20 13:56:43;;;;;;;21.02;6.68;;;;;;;;;;4985393;28;25065;-74
2023/11/20 13:59:09;;;;;;;10.00;6.38;;;;;;;;;;4990285;28;25151;-76
2023/11/20 14:01:35;;;;;;;16.58;6.30;;;;;;;;;;4990388;28;25090;-75
2023/11/20 14:04:01;;;;;;;11.77;6.45;;;;;;;;;;4993580;28;25059;-74
2023/11/20 14:06:28;;;;;;;13.10;5.65;;;;;;;;;;4995006;28;25058;-73
2023/11/20 14:08:54;;;;;;;8.68;6.72;;;;;;;;;;4985763;28;25070;-74
2023/11/20 14:11:20;;;;;;;11.40;8.50;;;;;;;;;;4985933;28;25071;-72
2023/11/20 14:13:48;;;;;;;12.98;10.25;;;;;;;;;;4988875;28;25182;-72
2023/11/20 14:16:14;;;;;;;16.55;9.32;;;;;;;;;;4985333;28;25057;-74
2023/11/20 14:18:40;;;;;;;15.48;11.65;;;;;;;;;;4986535;28;26208;-74